createdAt,value
2019-06-07T00:02:31.435Z,42.93
2019-06-07T00:05:07.634Z,43.60
2019-06-07T00:07:41.047Z,44.00
2019-06-07T00:10:31.258Z,44.33
2019-06-07T00:12:48.968Z,44.71
2019-06-07T00:15:28.717Z,45.03
2019-06-07T00:17:57.123Z,45.22
2019-06-07T00:20:30.317Z,45.40
2019-06-07T00:23:05.476Z,45.75
2019-06-07T00:25:38.664Z,45.78
2019-06-07T00:28:13.235Z,45.83
2019-06-07T00:30:52.189Z,45.85
2019-06-07T00:33:24.356Z,45.51
2019-06-07T00:35:56.445Z,45.24
2019-06-07T00:38:29.586Z,45.43
2019-06-07T00:41:02.765Z,45.31
2019-06-07T00:43:35.892Z,45.48
2019-06-07T00:46:12.842Z,45.52
2019-06-07T00:48:43.963Z,45.79
2019-06-07T00:51:18.727Z,46.10
2019-06-07T00:53:51.771Z,46.12
2019-06-07T00:56:25.180Z,46.25
2019-06-07T00:59:11.138Z,46.58
2019-06-07T01:01:34.913Z,46.79
2019-06-07T01:04:08.172Z,46.61
2019-06-07T01:06:41.488Z,46.79
2019-06-07T01:09:15.319Z,47.15
2019-06-07T01:11:48.521Z,47.12
2019-06-07T01:14:24.516Z,47.50
2019-06-07T01:17:13.341Z,47.72
2019-06-07T01:19:31.333Z,47.96
2019-06-07T01:22:04.344Z,47.57
2019-06-07T01:24:37.541Z,47.63
2019-06-07T01:27:10.700Z,48.00
2019-06-07T01:29:43.855Z,48.20
2019-06-07T01:32:18.794Z,48.36
2019-06-07T01:34:51.822Z,48.06
2019-06-07T01:37:27.771Z,48.19
2019-06-07T01:39:59.823Z,48.30
2019-06-07T01:42:33.041Z,48.47
2019-06-07T01:45:10.480Z,48.75
2019-06-07T01:47:43.688Z,48.71
2019-06-07T01:50:22.500Z,48.77
2019-06-07T01:52:53.460Z,49.10
2019-06-07T01:55:28.850Z,48.90
2019-06-07T01:58:01.227Z,49.05
2019-06-07T02:00:34.352Z,48.83
2019-06-07T02:03:07.444Z,48.95
2019-06-07T02:05:40.683Z,48.57
2019-06-07T02:08:13.786Z,48.70
2019-06-07T02:10:46.980Z,48.70
2019-06-07T02:13:21.222Z,48.71
2019-06-07T02:15:53.767Z,48.72
2019-06-07T02:18:29.037Z,48.84
2019-06-07T02:21:01.452Z,48.53
2019-06-07T02:23:34.549Z,48.13
2019-06-07T02:26:07.605Z,48.08
2019-06-07T02:28:45.656Z,48.20
2019-06-07T02:31:16.505Z,48.57
2019-06-07T02:33:49.842Z,48.77
2019-06-07T02:36:29.203Z,49.07
2019-06-07T02:38:57.810Z,48.91
2019-06-07T02:41:38.559Z,49.33
2019-06-07T02:44:06.503Z,49.37
2019-06-07T02:46:47.053Z,49.22
2019-06-07T02:49:14.477Z,49.24
2019-06-07T02:51:47.578Z,49.20
2019-06-07T02:54:20.763Z,48.62
2019-06-07T02:56:58.842Z,48.49
2019-06-07T02:59:59.666Z,47.54
2019-06-07T03:02:03.748Z,47.73
2019-06-07T03:04:41.529Z,47.74
2019-06-07T03:07:11.707Z,47.41
2019-06-07T03:09:45.169Z,47.35
2019-06-07T03:12:18.478Z,47.28
2019-06-07T03:14:51.514Z,47.26
2019-06-07T03:17:41.927Z,47.38
2019-06-07T03:20:18.179Z,47.41
2019-06-07T03:22:51.706Z,47.38
2019-06-07T03:25:25.765Z,47.25
2019-06-07T03:27:58.861Z,47.14
2019-06-07T03:30:39.802Z,47.29
2019-06-07T03:33:09.389Z,46.49
2019-06-07T03:35:42.591Z,46.99
2019-06-07T03:38:15.697Z,46.48
2019-06-07T03:40:48.782Z,46.16
2019-06-07T03:43:22.951Z,45.98
2019-06-07T03:45:57.828Z,46.24
2019-06-07T03:48:32.909Z,46.39
2019-06-07T03:51:23.604Z,46.15
2019-06-07T03:53:40.912Z,46.60
2019-06-07T03:56:15.218Z,46.79
2019-06-07T03:58:50.552Z,46.93
2019-06-07T04:01:24.019Z,46.65
2019-06-07T04:03:57.071Z,46.34
2019-06-07T04:06:32.576Z,46.22
2019-06-07T04:09:06.856Z,45.78
2019-06-07T04:11:40.914Z,45.62
2019-06-07T04:14:14.053Z,45.95
2019-06-07T04:16:47.274Z,46.14
2019-06-07T04:19:21.324Z,46.08
2019-06-07T04:21:54.360Z,45.85
2019-06-07T04:24:28.627Z,45.96
2019-06-07T04:27:01.774Z,45.79
2019-06-07T04:29:56.884Z,45.99
2019-06-07T04:32:10.738Z,45.38
2019-06-07T04:34:43.867Z,45.47
2019-06-07T04:37:17.851Z,45.30
2019-06-07T04:39:51.074Z,45.10
2019-06-07T04:42:25.330Z,44.96
2019-06-07T04:44:58.740Z,44.36
2019-06-07T04:47:33.780Z,44.32
2019-06-07T04:50:06.762Z,44.51
2019-06-07T04:52:42.667Z,44.70
2019-06-07T04:55:14.690Z,44.87
2019-06-07T04:57:51.972Z,44.74
2019-06-07T05:00:49.878Z,44.87
2019-06-07T05:03:06.576Z,44.98
2019-06-07T05:05:41.879Z,45.19
2019-06-07T05:08:27.638Z,44.40
2019-06-07T05:10:50.737Z,43.98
2019-06-07T05:13:23.953Z,44.35
2019-06-07T05:15:57.046Z,44.52
2019-06-07T05:18:30.299Z,44.16
2019-06-07T05:21:03.339Z,43.94
2019-06-07T05:24:05.674Z,43.42
2019-06-07T05:26:11.222Z,44.64
2019-06-07T05:28:44.419Z,43.45
2019-06-07T05:31:17.670Z,44.15
2019-06-07T05:33:52.100Z,42.80
2019-06-07T05:36:25.403Z,42.82
2019-06-07T05:38:58.533Z,41.99
2019-06-07T05:41:32.292Z,42.29
2019-06-07T05:44:13.216Z,41.51
2019-06-07T05:46:47.601Z,41.18
2019-06-07T05:49:20.929Z,40.69
2019-06-07T05:51:53.995Z,40.14
2019-06-07T05:54:28.149Z,39.69
2019-06-07T05:57:01.252Z,39.28
2019-06-07T05:59:38.306Z,39.13
2019-06-07T06:02:22.304Z,39.05
2019-06-07T06:04:50.450Z,39.00
2019-06-07T06:07:23.568Z,39.05
2019-06-07T06:09:56.711Z,39.00
2019-06-07T06:12:35.123Z,39.03
2019-06-07T06:15:07.372Z,39.29
2019-06-07T06:17:46.141Z,39.21
2019-06-07T06:20:18.223Z,39.28
2019-06-07T06:22:51.523Z,39.26
2019-06-07T06:25:33.927Z,39.27
2019-06-07T06:28:11.937Z,39.18
2019-06-07T06:30:34.222Z,39.14
2019-06-07T06:33:07.465Z,38.77
2019-06-07T06:35:42.346Z,38.74
2019-06-07T06:38:15.647Z,38.33
2019-06-07T06:40:55.021Z,38.33
2019-06-07T06:43:23.570Z,38.25
2019-06-07T06:45:56.730Z,37.94
2019-06-07T06:48:29.820Z,37.64
2019-06-07T06:51:05.144Z,37.46
2019-06-07T06:53:40.040Z,37.32
2019-06-07T06:56:13.113Z,37.04
2019-06-07T06:59:27.388Z,36.74
2019-06-07T07:01:21.188Z,36.67
2019-06-07T07:04:11.158Z,36.79
2019-06-07T07:06:32.027Z,36.74
2019-06-07T07:09:06.465Z,36.51
2019-06-07T07:11:55.228Z,36.46
2019-06-07T07:14:14.557Z,36.37
2019-06-07T07:16:50.027Z,36.28
2019-06-07T07:19:23.731Z,35.17
2019-06-07T07:21:58.383Z,34.82
2019-06-07T07:24:33.184Z,34.21
2019-06-07T07:27:06.190Z,33.66
2019-06-07T07:29:39.235Z,33.79
2019-06-07T07:32:16.031Z,33.59
2019-06-07T07:34:51.922Z,33.96
2019-06-07T07:37:23.885Z,33.56
2019-06-07T07:40:21.390Z,33.09
2019-06-07T07:42:32.884Z,32.53
2019-06-07T07:45:07.705Z,32.13
2019-06-07T07:47:58.423Z,32.28
2019-06-07T07:50:16.699Z,32.58
2019-06-07T07:52:55.954Z,32.92
2019-06-07T07:55:24.623Z,33.12
2019-06-07T07:58:01.746Z,33.12
2019-06-07T08:03:07.917Z,33.24
2019-06-07T08:05:43.362Z,33.66
2019-06-07T08:08:15.915Z,33.85
2019-06-07T08:10:51.887Z,34.00
2019-06-07T08:13:26.974Z,33.23
2019-06-07T08:16:00.449Z,32.87
2019-06-07T08:18:33.412Z,32.91
2019-06-07T08:21:23.686Z,32.39
2019-06-07T08:23:42.264Z,32.45
2019-06-07T08:26:14.720Z,32.30
2019-06-07T08:28:48.356Z,31.83
2019-06-07T08:31:22.514Z,31.27
2019-06-07T08:33:58.424Z,30.39
2019-06-07T08:36:41.846Z,29.89
2019-06-07T08:39:08.287Z,29.33
2019-06-07T08:41:54.027Z,29.23
2019-06-07T08:44:23.865Z,29.01
2019-06-07T08:47:11.685Z,27.70
2019-06-07T08:49:28.286Z,27.87
2019-06-07T08:52:09.833Z,27.95
2019-06-07T08:54:38.828Z,27.38
2019-06-07T08:57:20.664Z,26.99
2019-06-07T08:59:46.725Z,27.20
2019-06-07T09:02:23.721Z,27.57
2019-06-07T09:04:56.989Z,27.71
2019-06-07T09:07:29.445Z,27.79
2019-06-07T09:10:09.375Z,27.63
2019-06-07T09:12:37.490Z,27.77
2019-06-07T09:15:21.382Z,28.39
2019-06-07T09:18:30.428Z,28.92
2019-06-07T09:20:36.439Z,29.16
2019-06-07T09:22:58.959Z,29.53
2019-06-07T09:25:31.171Z,29.78
2019-06-07T09:28:14.108Z,30.27
2019-06-07T09:30:43.390Z,30.42
2019-06-07T09:33:16.444Z,30.92
2019-06-07T09:35:49.674Z,31.49
2019-06-07T09:38:26.286Z,31.88
2019-06-07T09:40:59.889Z,32.06
2019-06-07T09:46:12.795Z,32.35
2019-06-07T09:51:20.299Z,32.43
2019-06-07T09:53:53.770Z,32.48
2019-06-07T09:56:27.061Z,32.36
2019-06-07T09:59:02.974Z,32.24
2019-06-07T10:01:35.035Z,31.94
2019-06-07T10:04:16.739Z,31.64
2019-06-07T10:06:44.364Z,31.60
2019-06-07T10:11:52.662Z,31.49
2019-06-07T10:14:25.698Z,31.72
2019-06-07T10:16:58.966Z,31.95
2019-06-07T10:19:32.082Z,32.14
2019-06-07T10:22:05.836Z,32.26
2019-06-07T10:24:39.104Z,32.44
2019-06-07T10:27:12.233Z,32.63
2019-06-07T10:29:46.439Z,33.09
2019-06-07T10:32:19.634Z,33.39
2019-06-07T10:34:52.774Z,33.65
2019-06-07T10:37:25.917Z,33.62
2019-06-07T10:39:59.041Z,33.69
2019-06-07T10:42:34.568Z,34.09
2019-06-07T10:45:08.682Z,34.37
2019-06-07T10:47:42.987Z,34.50
2019-06-07T10:50:16.103Z,34.49
2019-06-07T10:52:49.185Z,34.37
2019-06-07T10:55:22.382Z,34.17
2019-06-07T10:57:55.484Z,34.26
2019-06-07T11:00:28.633Z,33.82
2019-06-07T11:03:01.854Z,33.59
2019-06-07T11:05:35.071Z,33.26
2019-06-07T11:08:10.223Z,32.95
2019-06-07T11:10:43.521Z,33.07
2019-06-07T11:13:16.600Z,33.00
2019-06-07T11:15:51.604Z,32.91
2019-06-07T11:18:24.878Z,32.84
2019-06-07T11:20:57.985Z,33.01
2019-06-07T11:23:32.145Z,32.83
2019-06-07T11:26:06.400Z,32.51
2019-06-07T11:28:39.682Z,32.51
2019-06-07T11:31:15.061Z,32.22
2019-06-07T11:33:48.420Z,31.91
2019-06-07T11:36:21.515Z,31.91
2019-06-07T11:38:54.695Z,31.66
2019-06-07T11:41:27.796Z,31.46
2019-06-07T11:44:01.111Z,31.12
2019-06-07T11:46:34.237Z,30.87
2019-06-07T11:49:08.253Z,30.63
2019-06-07T11:51:41.491Z,30.28
2019-06-07T11:54:16.120Z,30.29
2019-06-07T11:56:49.437Z,29.84
2019-06-07T11:59:22.538Z,29.67
2019-06-07T12:01:57.018Z,29.72
2019-06-07T12:04:34.808Z,29.58
2019-06-07T12:07:04.926Z,29.55
2019-06-07T12:09:38.091Z,29.57
2019-06-07T12:12:12.528Z,29.70
2019-06-07T12:14:46.640Z,30.04
2019-06-07T12:17:19.826Z,30.34
2019-06-07T12:19:53.111Z,30.51
2019-06-07T12:22:26.168Z,30.56
2019-06-07T12:24:59.365Z,30.77
2019-06-07T12:27:32.586Z,31.00
2019-06-07T12:30:19.493Z,31.09
2019-06-07T12:32:45.262Z,31.27
2019-06-07T12:35:19.843Z,31.15
2019-06-07T12:37:53.156Z,30.78
2019-06-07T12:40:32.077Z,30.37
2019-06-07T12:43:01.277Z,30.28
2019-06-07T12:45:44.354Z,29.83
2019-06-07T12:48:09.271Z,29.77
2019-06-07T12:50:44.091Z,29.57
2019-06-07T12:53:23.725Z,29.63
2019-06-07T12:55:54.191Z,29.28
2019-06-07T12:58:35.312Z,29.15
2019-06-07T13:01:04.855Z,28.94
2019-06-07T13:03:38.043Z,28.64
2019-06-07T13:06:12.210Z,28.91
2019-06-07T13:08:45.198Z,28.73
2019-06-07T13:11:26.136Z,28.58
2019-06-07T13:13:55.559Z,28.39
2019-06-07T13:16:28.627Z,28.49
2019-06-07T13:19:01.743Z,28.80
2019-06-07T13:21:34.852Z,29.16
2019-06-07T13:24:08.122Z,28.79
2019-06-07T13:26:41.242Z,28.73
2019-06-07T13:29:16.399Z,28.63
2019-06-07T13:31:49.632Z,28.48
2019-06-07T13:34:24.180Z,28.54
2019-06-07T13:36:58.554Z,28.77
2019-06-07T13:39:31.768Z,28.95
2019-06-07T13:42:05.358Z,29.25
2019-06-07T13:44:38.485Z,29.44
2019-06-07T13:47:11.667Z,29.64
2019-06-07T13:49:44.795Z,29.52
2019-06-07T13:52:17.910Z,29.76
2019-06-07T13:54:51.179Z,29.98
2019-06-07T13:57:24.481Z,29.74
2019-06-07T13:59:57.538Z,29.99
2019-06-07T14:02:30.707Z,30.16
2019-06-07T14:05:05.080Z,30.59
2019-06-07T14:07:39.410Z,30.65
2019-06-07T14:10:12.620Z,30.51
2019-06-07T14:12:45.888Z,30.67
2019-06-07T14:15:20.340Z,30.60
2019-06-07T14:17:53.718Z,30.74
2019-06-07T14:20:32.010Z,30.84
2019-06-07T14:23:01.724Z,31.03
2019-06-07T14:25:34.883Z,30.94
2019-06-07T14:28:11.438Z,31.42
2019-06-07T14:30:42.905Z,31.85
2019-06-07T14:33:16.079Z,32.20
2019-06-07T14:35:49.342Z,32.35
2019-06-07T14:38:23.049Z,32.68
2019-06-07T14:40:56.295Z,32.68
2019-06-07T14:43:29.678Z,32.99
2019-06-07T14:46:02.926Z,34.99
2019-06-07T14:48:37.169Z,45.09
2019-06-07T14:51:09.507Z,86.23
2019-06-07T15:03:15.246Z,87.38
2019-06-07T15:05:49.266Z,87.38
2019-06-07T15:08:22.853Z,86.94
2019-06-07T15:10:56.166Z,87.33
2019-06-07T15:13:29.532Z,87.47
2019-06-07T15:16:04.111Z,87.58
2019-06-07T15:18:37.948Z,87.84
2019-06-07T15:21:11.197Z,87.80
2019-06-07T15:23:44.359Z,88.05
2019-06-07T15:26:17.590Z,88.03
2019-06-07T15:28:50.980Z,88.11
2019-06-07T15:31:24.340Z,100.00
2019-06-07T15:33:57.418Z,88.22
2019-06-07T15:36:30.542Z,88.27
2019-06-07T17:09:47.783Z,100.00
2019-06-07T17:22:06.382Z,100.00
2019-06-07T17:24:39.613Z,88.51
